sensor_id;sensor_type;location;lat;lon;timestamp;pressure;altitude;pressure_sealevel;temperature;humidity
46574;BME280;32299;53.366;-1.544;2022-09-21T00:01:15;99924.10;;;18.16;38.02
46574;BME280;32299;53.366;-1.544;2022-09-21T00:03:43;99921.25;;;18.15;38.06
46574;BME280;32299;53.366;-1.544;2022-09-21T00:06:12;99923.95;;;17.89;38.03
46574;BME280;32299;53.366;-1.544;2022-09-21T00:08:40;99920.46;;;18.15;38.10
46574;BME280;32299;53.366;-1.544;2022-09-21T00:11:10;99925.10;;;18.38;38.07
46574;BME280;32299;53.366;-1.544;2022-09-21T00:13:38;99927.30;;;18.24;37.95
46574;BME280;32299;53.366;-1.544;2022-09-21T00:16:07;99925.49;;;18.22;37.94
46574;BME280;32299;53.366;-1.544;2022-09-21T00:18:34;99921.49;;;18.17;37.99
46574;BME280;32299;53.366;-1.544;2022-09-21T00:21:05;99923.47;;;17.88;38.06
46574;BME280;32299;53.366;-1.544;2022-09-21T00:23:34;99924.55;;;18.14;38.04
46574;BME280;32299;53.366;-1.544;2022-09-21T00:26:06;99923.19;;;18.35;38.03
46574;BME280;32299;53.366;-1.544;2022-09-21T00:28:33;99922.56;;;18.35;38.00
46574;BME280;32299;53.366;-1.544;2022-09-21T00:31:01;99923.88;;;17.86;38.07
46574;BME280;32299;53.366;-1.544;2022-09-21T00:33:29;99923.60;;;18.12;37.98
46574;BME280;32299;53.366;-1.544;2022-09-21T00:36:00;99921.84;;;18.12;38.07
46574;BME280;32299;53.366;-1.544;2022-09-21T00:38:27;99921.37;;;18.12;38.06
46574;BME280;32299;53.366;-1.544;2022-09-21T00:40:54;99922.46;;;18.11;38.07
46574;BME280;32299;53.366;-1.544;2022-09-21T00:43:21;99923.22;;;18.11;38.10
46574;BME280;32299;53.366;-1.544;2022-09-21T00:45:49;99920.78;;;18.32;38.15
46574;BME280;32299;53.366;-1.544;2022-09-21T00:48:16;99921.49;;;18.09;38.18
46574;BME280;32299;53.366;-1.544;2022-09-21T00:50:48;99923.93;;;17.82;38.13
46574;BME280;32299;53.366;-1.544;2022-09-21T00:53:17;99922.21;;;17.81;38.18
46574;BME280;32299;53.366;-1.544;2022-09-21T00:55:47;99922.49;;;18.07;38.21
46574;BME280;32299;53.366;-1.544;2022-09-21T00:58:19;99922.78;;;18.05;38.26
46574;BME280;32299;53.366;-1.544;2022-09-21T01:00:48;99919.23;;;18.05;38.26
46574;BME280;32299;53.366;-1.544;2022-09-21T01:03:15;99918.70;;;18.05;38.24
46574;BME280;32299;53.366;-1.544;2022-09-21T01:05:42;99916.31;;;18.05;38.25
46574;BME280;32299;53.366;-1.544;2022-09-21T01:08:10;99915.23;;;18.05;38.22
46574;BME280;32299;53.366;-1.544;2022-09-21T01:10:50;99914.16;;;17.79;38.22
46574;BME280;32299;53.366;-1.544;2022-09-21T01:13:31;99915.78;;;17.75;38.23
46574;BME280;32299;53.366;-1.544;2022-09-21T01:16:04;99915.19;;;18.01;38.24
46574;BME280;32299;53.366;-1.544;2022-09-21T01:18:37;99912.26;;;18.02;38.24
46574;BME280;32299;53.366;-1.544;2022-09-21T01:21:17;99910.80;;;18.02;38.28
46574;BME280;32299;53.366;-1.544;2022-09-21T01:24:01;99909.81;;;17.73;38.28
46574;BME280;32299;53.366;-1.544;2022-09-21T01:26:40;99910.07;;;17.98;38.33
46574;BME280;32299;53.366;-1.544;2022-09-21T01:29:18;99909.61;;;18.19;38.33
46574;BME280;32299;53.366;-1.544;2022-09-21T01:31:52;99909.86;;;17.97;38.27
46574;BME280;32299;53.366;-1.544;2022-09-21T01:34:26;99906.77;;;18.19;38.30
46574;BME280;32299;53.366;-1.544;2022-09-21T01:36:57;99903.45;;;18.18;38.25
46574;BME280;32299;53.366;-1.544;2022-09-21T01:39:27;99901.73;;;17.69;38.30
46574;BME280;32299;53.366;-1.544;2022-09-21T01:41:56;99901.38;;;17.95;38.28
46574;BME280;32299;53.366;-1.544;2022-09-21T01:44:27;99899.37;;;17.96;38.21
46574;BME280;32299;53.366;-1.544;2022-09-21T01:46:56;99900.52;;;17.95;38.26
46574;BME280;32299;53.366;-1.544;2022-09-21T01:49:30;99899.14;;;17.94;38.15
46574;BME280;32299;53.366;-1.544;2022-09-21T01:52:04;99895.19;;;18.15;38.08
46574;BME280;32299;53.366;-1.544;2022-09-21T01:54:38;99890.73;;;17.92;38.11
46574;BME280;32299;53.366;-1.544;2022-09-21T01:57:10;99883.73;;;17.90;38.07
46574;BME280;32299;53.366;-1.544;2022-09-21T01:59:47;99882.78;;;17.89;38.07
46574;BME280;32299;53.366;-1.544;2022-09-21T02:02:21;99882.12;;;18.08;38.10
46574;BME280;32299;53.366;-1.544;2022-09-21T02:04:50;99881.78;;;17.58;38.13
46574;BME280;32299;53.366;-1.544;2022-09-21T02:07:18;99878.98;;;17.84;38.09
46574;BME280;32299;53.366;-1.544;2022-09-21T02:09:46;99877.44;;;17.83;38.14
46574;BME280;32299;53.366;-1.544;2022-09-21T02:12:14;99879.28;;;17.82;38.10
46574;BME280;32299;53.366;-1.544;2022-09-21T02:14:41;99876.15;;;18.03;38.06
46574;BME280;32299;53.366;-1.544;2022-09-21T02:17:20;99873.69;;;18.00;38.09
46574;BME280;32299;53.366;-1.544;2022-09-21T02:19:59;99872.01;;;17.97;38.08
46574;BME280;32299;53.366;-1.544;2022-09-21T02:22:32;99872.93;;;17.95;38.02
46574;BME280;32299;53.366;-1.544;2022-09-21T02:25:06;99871.44;;;17.72;38.03
46574;BME280;32299;53.366;-1.544;2022-09-21T02:27:43;99871.82;;;17.69;38.06
46574;BME280;32299;53.366;-1.544;2022-09-21T02:30:14;99871.71;;;17.89;37.99
46574;BME280;32299;53.366;-1.544;2022-09-21T02:32:46;99871.68;;;17.88;38.02
46574;BME280;32299;53.366;-1.544;2022-09-21T02:35:23;99869.91;;;17.86;38.00
46574;BME280;32299;53.366;-1.544;2022-09-21T02:37:57;99868.29;;;17.83;38.02
46574;BME280;32299;53.366;-1.544;2022-09-21T02:40:30;99864.53;;;17.82;38.02
46574;BME280;32299;53.366;-1.544;2022-09-21T02:43:03;99861.76;;;17.80;38.01
46574;BME280;32299;53.366;-1.544;2022-09-21T02:45:37;99863.14;;;17.78;38.04
46574;BME280;32299;53.366;-1.544;2022-09-21T02:48:08;99862.84;;;17.77;38.05
46574;BME280;32299;53.366;-1.544;2022-09-21T02:50:42;99863.88;;;17.54;38.06
46574;BME280;32299;53.366;-1.544;2022-09-21T02:53:12;99862.69;;;17.74;38.02
46574;BME280;32299;53.366;-1.544;2022-09-21T02:55:42;99861.58;;;17.73;38.02
46574;BME280;32299;53.366;-1.544;2022-09-21T02:58:12;99859.33;;;17.71;38.04
46574;BME280;32299;53.366;-1.544;2022-09-21T03:00:40;99855.04;;;17.71;37.96
46574;BME280;32299;53.366;-1.544;2022-09-21T03:03:16;99853.91;;;17.71;37.99
46574;BME280;32299;53.366;-1.544;2022-09-21T03:05:46;99852.13;;;17.67;38.01
46574;BME280;32299;53.366;-1.544;2022-09-21T03:08:15;99850.87;;;17.42;38.01
46574;BME280;32299;53.366;-1.544;2022-09-21T03:10:42;99848.34;;;17.63;37.98
46574;BME280;32299;53.366;-1.544;2022-09-21T03:13:10;99849.07;;;17.62;38.00
46574;BME280;32299;53.366;-1.544;2022-09-21T03:15:39;99846.42;;;17.61;38.02
46574;BME280;32299;53.366;-1.544;2022-09-21T03:18:08;99844.10;;;17.59;37.99
46574;BME280;32299;53.366;-1.544;2022-09-21T03:20:36;99843.40;;;17.57;38.02
46574;BME280;32299;53.366;-1.544;2022-09-21T03:23:04;99842.72;;;17.56;38.03
46574;BME280;32299;53.366;-1.544;2022-09-21T03:25:31;99847.84;;;17.33;38.05
46574;BME280;32299;53.366;-1.544;2022-09-21T03:27:58;99844.61;;;17.52;38.07
46574;BME280;32299;53.366;-1.544;2022-09-21T03:30:26;99845.47;;;17.52;38.10
46574;BME280;32299;53.366;-1.544;2022-09-21T03:32:53;99846.05;;;17.52;38.11
46574;BME280;32299;53.366;-1.544;2022-09-21T03:35:22;99844.65;;;17.50;38.11
46574;BME280;32299;53.366;-1.544;2022-09-21T03:37:50;99841.54;;;17.48;38.14
46574;BME280;32299;53.366;-1.544;2022-09-21T03:40:18;99841.98;;;17.49;38.15
46574;BME280;32299;53.366;-1.544;2022-09-21T03:42:46;99838.71;;;17.46;38.22
46574;BME280;32299;53.366;-1.544;2022-09-21T03:45:13;99833.77;;;17.44;38.25
46574;BME280;32299;53.366;-1.544;2022-09-21T03:47:41;99833.54;;;17.43;38.31
46574;BME280;32299;53.366;-1.544;2022-09-21T03:50:10;99833.16;;;17.42;38.32
46574;BME280;32299;53.366;-1.544;2022-09-21T03:52:37;99834.12;;;17.41;38.32
46574;BME280;32299;53.366;-1.544;2022-09-21T03:55:07;99833.27;;;17.40;38.38
46574;BME280;32299;53.366;-1.544;2022-09-21T03:57:35;99829.56;;;17.42;38.34
46574;BME280;32299;53.366;-1.544;2022-09-21T04:00:04;99828.06;;;17.39;38.38
46574;BME280;32299;53.366;-1.544;2022-09-21T04:02:32;99828.17;;;17.40;38.41
46574;BME280;32299;53.366;-1.544;2022-09-21T04:04:59;99827.41;;;17.40;38.37
46574;BME280;32299;53.366;-1.544;2022-09-21T04:07:30;99824.23;;;17.40;38.37
46574;BME280;32299;53.366;-1.544;2022-09-21T04:09:56;99826.66;;;17.40;38.40
46574;BME280;32299;53.366;-1.544;2022-09-21T04:12:24;99822.06;;;17.41;38.36
46574;BME280;32299;53.366;-1.544;2022-09-21T04:14:50;99818.52;;;17.42;38.35
46574;BME280;32299;53.366;-1.544;2022-09-21T04:17:18;99814.63;;;17.41;38.38
46574;BME280;32299;53.366;-1.544;2022-09-21T04:19:45;99813.68;;;17.41;38.38
46574;BME280;32299;53.366;-1.544;2022-09-21T04:22:12;99813.25;;;17.44;38.34
46574;BME280;32299;53.366;-1.544;2022-09-21T04:24:40;99813.79;;;17.46;38.31
46574;BME280;32299;53.366;-1.544;2022-09-21T04:27:07;99810.51;;;17.46;38.35
46574;BME280;32299;53.366;-1.544;2022-09-21T04:29:35;99809.88;;;17.47;38.28
46574;BME280;32299;53.366;-1.544;2022-09-21T04:32:03;99811.15;;;17.47;38.36
46574;BME280;32299;53.366;-1.544;2022-09-21T04:34:31;99807.43;;;17.48;38.34
46574;BME280;32299;53.366;-1.544;2022-09-21T04:36:58;99806.85;;;17.48;38.34
46574;BME280;32299;53.366;-1.544;2022-09-21T04:39:25;99809.42;;;17.51;38.31
46574;BME280;32299;53.366;-1.544;2022-09-21T04:41:53;99812.38;;;17.50;38.28
46574;BME280;32299;53.366;-1.544;2022-09-21T04:44:20;99818.70;;;17.29;38.23
46574;BME280;32299;53.366;-1.544;2022-09-21T04:46:47;99818.31;;;17.50;38.30
46574;BME280;32299;53.366;-1.544;2022-09-21T04:49:14;99817.49;;;17.50;38.16
46574;BME280;32299;53.366;-1.544;2022-09-21T04:51:42;99822.52;;;17.50;38.20
46574;BME280;32299;53.366;-1.544;2022-09-21T04:54:10;99821.57;;;17.49;38.19
46574;BME280;32299;53.366;-1.544;2022-09-21T04:56:37;99822.21;;;17.27;38.26
46574;BME280;32299;53.366;-1.544;2022-09-21T04:59:04;99820.49;;;17.50;38.27
46574;BME280;32299;53.366;-1.544;2022-09-21T05:01:31;99817.81;;;17.50;38.26
46574;BME280;32299;53.366;-1.544;2022-09-21T05:03:59;99821.05;;;17.52;38.28
46574;BME280;32299;53.366;-1.544;2022-09-21T05:06:27;99822.43;;;17.53;38.26
46574;BME280;32299;53.366;-1.544;2022-09-21T05:08:54;99819.52;;;17.52;38.31
46574;BME280;32299;53.366;-1.544;2022-09-21T05:11:21;99813.81;;;17.55;38.26
46574;BME280;32299;53.366;-1.544;2022-09-21T05:13:48;99815.56;;;17.54;38.33
46574;BME280;32299;53.366;-1.544;2022-09-21T05:16:17;99814.86;;;17.54;38.37
46574;BME280;32299;53.366;-1.544;2022-09-21T05:18:44;99816.00;;;17.54;38.30
46574;BME280;32299;53.366;-1.544;2022-09-21T05:21:13;99817.40;;;17.58;38.23
46574;BME280;32299;53.366;-1.544;2022-09-21T05:23:40;99817.68;;;17.60;38.28
46574;BME280;32299;53.366;-1.544;2022-09-21T05:26:08;99812.65;;;17.60;38.27
46574;BME280;32299;53.366;-1.544;2022-09-21T05:28:35;99811.29;;;17.59;38.33
46574;BME280;32299;53.366;-1.544;2022-09-21T05:31:10;99810.57;;;17.59;38.30
46574;BME280;32299;53.366;-1.544;2022-09-21T05:33:43;99810.53;;;17.57;38.37
46574;BME280;32299;53.366;-1.544;2022-09-21T05:36:26;99812.97;;;17.57;38.35
46574;BME280;32299;53.366;-1.544;2022-09-21T05:39:01;99817.08;;;17.54;38.38
46574;BME280;32299;53.366;-1.544;2022-09-21T05:41:29;99818.26;;;17.56;38.41
46574;BME280;32299;53.366;-1.544;2022-09-21T05:43:57;99815.50;;;17.58;38.39
46574;BME280;32299;53.366;-1.544;2022-09-21T05:46:35;99818.59;;;17.37;38.39
46574;BME280;32299;53.366;-1.544;2022-09-21T05:49:11;99817.89;;;17.58;38.36
46574;BME280;32299;53.366;-1.544;2022-09-21T05:51:47;99824.93;;;17.55;38.42
46574;BME280;32299;53.366;-1.544;2022-09-21T05:54:23;99827.61;;;17.55;38.42
46574;BME280;32299;53.366;-1.544;2022-09-21T05:57:01;99828.54;;;17.57;38.45
46574;BME280;32299;53.366;-1.544;2022-09-21T05:59:45;99828.18;;;17.58;38.46
46574;BME280;32299;53.366;-1.544;2022-09-21T06:02:23;99829.65;;;17.57;38.52
46574;BME280;32299;53.366;-1.544;2022-09-21T06:04:52;99830.27;;;17.59;38.47
46574;BME280;32299;53.366;-1.544;2022-09-21T06:07:22;99834.51;;;17.61;38.51
46574;BME280;32299;53.366;-1.544;2022-09-21T06:09:49;99833.74;;;17.63;38.48
46574;BME280;32299;53.366;-1.544;2022-09-21T06:12:17;99834.83;;;17.64;38.47
46574;BME280;32299;53.366;-1.544;2022-09-21T06:14:50;99836.69;;;17.65;38.49
46574;BME280;32299;53.366;-1.544;2022-09-21T06:17:17;99836.18;;;17.66;38.49
46574;BME280;32299;53.366;-1.544;2022-09-21T06:19:44;99837.60;;;17.69;38.44
46574;BME280;32299;53.366;-1.544;2022-09-21T06:22:10;99838.57;;;17.48;38.58
46574;BME280;32299;53.366;-1.544;2022-09-21T06:24:37;99843.49;;;17.71;38.57
46574;BME280;32299;53.366;-1.544;2022-09-21T06:27:05;99841.02;;;17.69;38.66
46574;BME280;32299;53.366;-1.544;2022-09-21T06:29:32;99842.16;;;17.68;38.63
46574;BME280;32299;53.366;-1.544;2022-09-21T06:32:02;99843.30;;;17.68;38.69
46574;BME280;32299;53.366;-1.544;2022-09-21T06:34:29;99841.42;;;17.67;38.62
46574;BME280;32299;53.366;-1.544;2022-09-21T06:36:57;99844.44;;;17.45;38.65
46574;BME280;32299;53.366;-1.544;2022-09-21T06:39:24;99840.75;;;17.68;38.72
46574;BME280;32299;53.366;-1.544;2022-09-21T06:41:51;99841.64;;;17.68;38.77
46574;BME280;32299;53.366;-1.544;2022-09-21T06:44:18;99841.95;;;17.68;38.71
46574;BME280;32299;53.366;-1.544;2022-09-21T06:46:45;99839.05;;;17.45;38.76
46574;BME280;32299;53.366;-1.544;2022-09-21T06:49:12;99840.12;;;17.47;38.72
46574;BME280;32299;53.366;-1.544;2022-09-21T06:51:39;99841.12;;;17.69;38.76
46574;BME280;32299;53.366;-1.544;2022-09-21T06:54:06;99840.81;;;17.72;38.78
46574;BME280;32299;53.366;-1.544;2022-09-21T06:56:34;99841.30;;;17.73;38.73
46574;BME280;32299;53.366;-1.544;2022-09-21T06:59:01;99841.27;;;17.74;38.76
46574;BME280;32299;53.366;-1.544;2022-09-21T07:01:28;99840.02;;;17.75;38.76
46574;BME280;32299;53.366;-1.544;2022-09-21T07:03:55;99839.51;;;17.72;38.89
46574;BME280;32299;53.366;-1.544;2022-09-21T07:06:22;99838.69;;;17.51;38.85
46574;BME280;32299;53.366;-1.544;2022-09-21T07:08:51;99838.03;;;17.53;38.88
46574;BME280;32299;53.366;-1.544;2022-09-21T07:11:18;99835.91;;;17.77;38.88
46574;BME280;32299;53.366;-1.544;2022-09-21T07:13:45;99836.47;;;17.79;38.92
46574;BME280;32299;53.366;-1.544;2022-09-21T07:16:13;99833.71;;;17.82;38.94
46574;BME280;32299;53.366;-1.544;2022-09-21T07:18:41;99831.86;;;17.64;38.89
46574;BME280;32299;53.366;-1.544;2022-09-21T07:21:09;99829.90;;;17.90;38.97
46574;BME280;32299;53.366;-1.544;2022-09-21T07:23:37;99827.53;;;17.91;38.99
46574;BME280;32299;53.366;-1.544;2022-09-21T07:26:07;99827.81;;;17.95;38.98
46574;BME280;32299;53.366;-1.544;2022-09-21T07:28:34;99829.07;;;18.00;38.97
46574;BME280;32299;53.366;-1.544;2022-09-21T07:31:05;99831.34;;;17.81;38.97
46574;BME280;32299;53.366;-1.544;2022-09-21T07:33:33;99831.43;;;17.84;38.89
46574;BME280;32299;53.366;-1.544;2022-09-21T07:36:02;99833.35;;;17.88;38.86
46574;BME280;32299;53.366;-1.544;2022-09-21T07:38:29;99832.80;;;18.13;38.80
46574;BME280;32299;53.366;-1.544;2022-09-21T07:40:56;99829.66;;;17.93;38.83
46574;BME280;32299;53.366;-1.544;2022-09-21T07:43:26;99827.88;;;17.68;38.80
46574;BME280;32299;53.366;-1.544;2022-09-21T07:45:54;99828.28;;;17.96;38.83
46574;BME280;32299;53.366;-1.544;2022-09-21T07:48:21;99828.25;;;17.70;38.81
46574;BME280;32299;53.366;-1.544;2022-09-21T07:50:49;99829.06;;;18.03;38.71
46574;BME280;32299;53.366;-1.544;2022-09-21T07:53:16;99828.07;;;18.26;38.75
46574;BME280;32299;53.366;-1.544;2022-09-21T07:55:43;99824.24;;;18.05;38.75
46574;BME280;32299;53.366;-1.544;2022-09-21T07:58:11;99828.74;;;18.06;38.74
46574;BME280;32299;53.366;-1.544;2022-09-21T08:00:38;99829.66;;;18.30;38.76
46574;BME280;32299;53.366;-1.544;2022-09-21T08:03:05;99825.04;;;18.08;38.75
46574;BME280;32299;53.366;-1.544;2022-09-21T08:05:33;99824.98;;;18.11;38.76
46574;BME280;32299;53.366;-1.544;2022-09-21T08:08:01;99822.07;;;18.12;38.77
46574;BME280;32299;53.366;-1.544;2022-09-21T08:10:28;99820.28;;;18.15;38.78
46574;BME280;32299;53.366;-1.544;2022-09-21T08:12:55;99818.14;;;17.93;38.83
46574;BME280;32299;53.366;-1.544;2022-09-21T08:15:22;99819.62;;;18.22;38.80
46574;BME280;32299;53.366;-1.544;2022-09-21T08:17:50;99817.48;;;18.25;38.68
46574;BME280;32299;53.366;-1.544;2022-09-21T08:20:17;99816.66;;;18.29;38.57
46574;BME280;32299;53.366;-1.544;2022-09-21T08:22:44;99818.38;;;18.04;38.44
46574;BME280;32299;53.366;-1.544;2022-09-21T08:25:12;99820.09;;;18.35;38.41
46574;BME280;32299;53.366;-1.544;2022-09-21T08:27:38;99827.24;;;18.11;38.34
46574;BME280;32299;53.366;-1.544;2022-09-21T08:30:07;99827.68;;;18.20;38.27
46574;BME280;32299;53.366;-1.544;2022-09-21T08:32:34;99826.20;;;18.23;38.30
46574;BME280;32299;53.366;-1.544;2022-09-21T08:35:01;99829.57;;;18.55;38.25
46574;BME280;32299;53.366;-1.544;2022-09-21T08:37:29;99825.52;;;18.34;38.17
46574;BME280;32299;53.366;-1.544;2022-09-21T08:39:56;99827.96;;;18.36;38.12
46574;BME280;32299;53.366;-1.544;2022-09-21T08:42:35;99836.84;;;18.42;38.06
46574;BME280;32299;53.366;-1.544;2022-09-21T08:45:09;99832.39;;;18.51;38.04
46574;BME280;32299;53.366;-1.544;2022-09-21T08:47:41;99834.48;;;18.52;38.05
46574;BME280;32299;53.366;-1.544;2022-09-21T08:50:22;99835.36;;;18.54;37.95
46574;BME280;32299;53.366;-1.544;2022-09-21T08:53:00;99835.61;;;18.58;37.87
46574;BME280;32299;53.366;-1.544;2022-09-21T08:55:27;99831.10;;;18.60;37.94
46574;BME280;32299;53.366;-1.544;2022-09-21T08:57:55;99835.15;;;18.41;37.95
46574;BME280;32299;53.366;-1.544;2022-09-21T09:00:22;99832.05;;;18.70;37.81
46574;BME280;32299;53.366;-1.544;2022-09-21T09:03:06;99833.43;;;18.69;37.97
46574;BME280;32299;53.366;-1.544;2022-09-21T09:05:44;99830.92;;;18.72;38.03
46574;BME280;32299;53.366;-1.544;2022-09-21T09:08:57;99829.77;;;18.76;38.13
46574;BME280;32299;53.366;-1.544;2022-09-21T09:11:39;99833.03;;;19.09;38.44
46574;BME280;32299;53.366;-1.544;2022-09-21T09:14:21;99834.31;;;18.91;38.34
46574;BME280;32299;53.366;-1.544;2022-09-21T09:17:03;99831.61;;;18.98;38.14
46574;BME280;32299;53.366;-1.544;2022-09-21T09:19:42;99832.06;;;19.07;38.23
46574;BME280;32299;53.366;-1.544;2022-09-21T09:22:14;99831.22;;;18.94;38.32
46574;BME280;32299;53.366;-1.544;2022-09-21T09:24:47;99830.33;;;19.26;38.00
46574;BME280;32299;53.366;-1.544;2022-09-21T09:27:18;99832.24;;;18.90;37.78
46574;BME280;32299;53.366;-1.544;2022-09-21T09:29:53;99834.56;;;18.94;37.62
46574;BME280;32299;53.366;-1.544;2022-09-21T09:32:28;99834.10;;;18.96;37.45
46574;BME280;32299;53.366;-1.544;2022-09-21T09:35:03;99834.13;;;19.28;37.21
46574;BME280;32299;53.366;-1.544;2022-09-21T09:37:34;99834.08;;;19.31;36.90
46574;BME280;32299;53.366;-1.544;2022-09-21T09:40:10;99835.01;;;18.85;36.54
46574;BME280;32299;53.366;-1.544;2022-09-21T09:42:48;99833.61;;;19.20;36.84
46574;BME280;32299;53.366;-1.544;2022-09-21T09:45:27;99831.78;;;19.30;36.91
46574;BME280;32299;53.366;-1.544;2022-09-21T09:48:07;99832.72;;;19.37;36.77
46574;BME280;32299;53.366;-1.544;2022-09-21T09:50:41;99830.40;;;19.44;36.56
46574;BME280;32299;53.366;-1.544;2022-09-21T09:53:13;99827.22;;;19.52;36.80
46574;BME280;32299;53.366;-1.544;2022-09-21T09:55:44;99824.16;;;19.65;36.15
46574;BME280;32299;53.366;-1.544;2022-09-21T09:58:17;99825.59;;;19.63;36.17
46574;BME280;32299;53.366;-1.544;2022-09-21T10:00:46;99824.93;;;19.75;36.39
46574;BME280;32299;53.366;-1.544;2022-09-21T10:03:16;99822.13;;;19.85;36.42
46574;BME280;32299;53.366;-1.544;2022-09-21T10:05:44;99823.18;;;19.99;36.16
46574;BME280;32299;53.366;-1.544;2022-09-21T10:08:31;99822.99;;;20.09;36.35
46574;BME280;32299;53.366;-1.544;2022-09-21T10:11:05;99822.66;;;20.22;36.39
46574;BME280;32299;53.366;-1.544;2022-09-21T10:13:34;99824.23;;;20.06;36.05
46574;BME280;32299;53.366;-1.544;2022-09-21T10:16:04;99821.67;;;20.48;35.27
46574;BME280;32299;53.366;-1.544;2022-09-21T10:18:37;99823.37;;;20.49;35.62
46574;BME280;32299;53.366;-1.544;2022-09-21T10:21:08;99818.66;;;20.60;35.03
46574;BME280;32299;53.366;-1.544;2022-09-21T10:23:37;99815.85;;;20.16;35.28
46574;BME280;32299;53.366;-1.544;2022-09-21T10:26:07;99814.22;;;20.31;35.13
46574;BME280;32299;53.366;-1.544;2022-09-21T10:28:36;99813.68;;;20.33;34.94
46574;BME280;32299;53.366;-1.544;2022-09-21T10:31:16;99809.44;;;20.41;34.64
46574;BME280;32299;53.366;-1.544;2022-09-21T10:33:50;99812.69;;;20.52;34.83
46574;BME280;32299;53.366;-1.544;2022-09-21T10:36:28;99807.37;;;20.71;34.43
46574;BME280;32299;53.366;-1.544;2022-09-21T10:39:09;99800.72;;;20.75;34.18
46574;BME280;32299;53.366;-1.544;2022-09-21T10:41:36;99801.06;;;20.90;33.92
46574;BME280;32299;53.366;-1.544;2022-09-21T10:44:12;99800.06;;;20.86;34.02
46574;BME280;32299;53.366;-1.544;2022-09-21T10:46:41;99804.66;;;21.24;33.55
46574;BME280;32299;53.366;-1.544;2022-09-21T10:49:14;99801.74;;;21.41;32.62
46574;BME280;32299;53.366;-1.544;2022-09-21T10:51:44;99794.89;;;21.46;32.31
46574;BME280;32299;53.366;-1.544;2022-09-21T10:54:19;99797.06;;;21.29;32.07
46574;BME280;32299;53.366;-1.544;2022-09-21T10:56:54;99799.07;;;21.42;32.47
46574;BME280;32299;53.366;-1.544;2022-09-21T10:59:25;99795.39;;;21.25;32.44
46574;BME280;32299;53.366;-1.544;2022-09-21T11:01:54;99789.14;;;21.87;32.33
46574;BME280;32299;53.366;-1.544;2022-09-21T11:04:30;99790.35;;;21.65;32.18
46574;BME280;32299;53.366;-1.544;2022-09-21T11:07:03;99791.39;;;21.88;31.98
46574;BME280;32299;53.366;-1.544;2022-09-21T11:09:38;99789.40;;;21.83;31.76
46574;BME280;32299;53.366;-1.544;2022-09-21T11:12:21;99788.86;;;21.61;32.21
46574;BME280;32299;53.366;-1.544;2022-09-21T11:14:59;99787.95;;;21.83;31.59
46574;BME280;32299;53.366;-1.544;2022-09-21T11:17:35;99790.96;;;21.53;31.17
46574;BME280;32299;53.366;-1.544;2022-09-21T11:20:16;99785.77;;;21.56;31.42
